Terminal Aerodrome Forecast
Issued by NWS

Home | Current Version | Previous Version | Text Only | Print | Product List | Glossary On
Versions: 1 2 3 4 5 6 7 8 9 10 11 12 13 14 15 16 17 18 19 20 21
000
FTUS43 KIWX 200532 AAA
TAFSBN
TAF AMD
KSBN 200532Z 2006/2106 09008KT 4SM RA BR SCT006 OVC020
     FM200800 09006KT 2SM RA BR OVC006
     FM201200 12004KT 2SM -RA BR OVC004
     FM201800 21005KT 5SM BR OVC006
     FM202300 17005KT 4SM BR OVC004=

USA.gov is the U.S. government's official web portal to all federal, state and local government web resources and services.